createdAt,value
2023-01-21T00:01:04.982Z,8.57
2023-01-21T00:03:32.539Z,9.38
2023-01-21T00:06:00.118Z,7.25
2023-01-21T00:08:27.585Z,7.45
2023-01-21T00:10:55.083Z,7.18
2023-01-21T00:13:22.939Z,9.18
2023-01-21T00:15:50.450Z,7.90
2023-01-21T00:18:17.860Z,7.32
2023-01-21T00:20:46.152Z,6.43
2023-01-21T00:23:13.503Z,5.72
2023-01-21T00:25:40.924Z,7.03
2023-01-21T00:28:08.363Z,6.32
2023-01-21T00:30:36.909Z,6.45
2023-01-21T00:33:05.021Z,9.25
2023-01-21T00:35:32.562Z,7.97
2023-01-21T00:38:00.096Z,6.97
2023-01-21T00:40:27.463Z,7.72
2023-01-21T00:42:54.789Z,5.35
2023-01-21T00:45:22.106Z,6.45
2023-01-21T00:47:49.543Z,6.30
2023-01-21T00:50:17.267Z,6.22
2023-01-21T00:52:44.711Z,5.80
2023-01-21T00:55:12.059Z,6.78
2023-01-21T00:57:39.490Z,7.32
2023-01-21T01:00:11.061Z,5.82
2023-01-21T01:02:38.825Z,6.97
2023-01-21T01:05:08.343Z,7.78
2023-01-21T01:07:36.096Z,7.03
2023-01-21T01:10:03.697Z,6.57
2023-01-21T01:12:31.094Z,5.97
2023-01-21T01:15:00.774Z,6.40
2023-01-21T01:17:28.643Z,7.22
2023-01-21T01:19:56.011Z,6.70
2023-01-21T01:22:23.436Z,6.88
2023-01-21T01:24:50.811Z,7.05
2023-01-21T01:27:18.120Z,7.18
2023-01-21T01:29:45.647Z,6.10
2023-01-21T01:32:12.982Z,6.90
2023-01-21T01:34:40.345Z,6.45
2023-01-21T01:37:07.774Z,7.90
2023-01-21T01:39:35.787Z,6.38
2023-01-21T01:42:03.669Z,6.60
2023-01-21T01:44:50.061Z,7.50
2023-01-21T01:47:18.406Z,6.25
2023-01-21T01:49:46.894Z,6.95
2023-01-21T01:52:16.391Z,6.25
2023-01-21T01:54:47.964Z,6.25
2023-01-21T01:57:20.309Z,5.68
2023-01-21T01:59:49.670Z,6.30
2023-01-21T02:02:19.955Z,5.60
2023-01-21T02:04:53.038Z,10.63
2023-01-21T02:07:23.647Z,6.78
2023-01-21T02:09:53.550Z,6.03
2023-01-21T02:12:21.890Z,5.30
2023-01-21T02:14:50.188Z,7.57
2023-01-21T02:17:32.699Z,6.60
2023-01-21T02:19:59.981Z,5.90
2023-01-21T02:22:52.830Z,6.07
2023-01-21T02:25:27.215Z,5.40
2023-01-21T02:28:29.874Z,6.82
2023-01-21T02:31:03.503Z,6.38
2023-01-21T02:33:49.257Z,5.95
2023-01-21T02:36:36.564Z,5.95
2023-01-21T02:39:15.747Z,7.38
2023-01-21T02:41:51.914Z,5.80
2023-01-21T02:44:32.417Z,7.50
2023-01-21T02:47:09.812Z,5.57
2023-01-21T02:49:45.564Z,5.43
2023-01-21T02:52:21.360Z,11.93
2023-01-21T02:54:50.938Z,6.45
2023-01-21T02:57:29.462Z,6.05
2023-01-21T02:59:58.960Z,5.53
2023-01-21T03:02:51.819Z,5.65
2023-01-21T03:05:34.015Z,6.40
2023-01-21T03:08:08.798Z,6.40
2023-01-21T03:10:36.069Z,5.93
2023-01-21T03:13:40.756Z,6.55
2023-01-21T03:16:30.796Z,6.65
2023-01-21T03:19:03.979Z,6.07
2023-01-21T03:21:34.107Z,5.50
2023-01-21T03:24:02.691Z,6.93
2023-01-21T03:26:35.305Z,7.00
2023-01-21T03:29:17.598Z,5.95
2023-01-21T03:31:50.775Z,6.25
2023-01-21T03:34:20.202Z,5.82
2023-01-21T03:37:00.471Z,5.68
2023-01-21T03:39:32.875Z,6.18
2023-01-21T03:42:01.759Z,7.43
2023-01-21T03:44:29.192Z,5.40
2023-01-21T03:47:05.659Z,5.88
2023-01-21T03:49:44.009Z,6.63
2023-01-21T03:52:13.698Z,6.30
2023-01-21T03:54:41.388Z,5.85
2023-01-21T03:57:08.851Z,6.63
2023-01-21T03:59:36.240Z,5.95
2023-01-21T04:02:03.631Z,5.97
2023-01-21T04:04:30.983Z,6.57
2023-01-21T04:06:58.343Z,7.05
2023-01-21T04:09:25.684Z,6.40
2023-01-21T04:11:53.030Z,7.13
2023-01-21T04:14:20.384Z,6.32
2023-01-21T04:16:47.669Z,5.65
2023-01-21T04:19:14.996Z,7.00
2023-01-21T04:21:42.383Z,6.22
2023-01-21T04:24:09.785Z,5.82
2023-01-21T04:26:37.087Z,6.88
2023-01-21T04:29:04.575Z,5.78
2023-01-21T04:31:31.944Z,6.85
2023-01-21T04:33:59.446Z,6.10
2023-01-21T04:36:26.768Z,6.53
2023-01-21T04:38:54.153Z,6.75
2023-01-21T04:41:23.413Z,5.32
2023-01-21T04:43:51.889Z,5.93
2023-01-21T04:46:19.219Z,5.85
2023-01-21T04:48:46.551Z,5.82
2023-01-21T04:51:14.192Z,6.68
2023-01-21T04:53:41.537Z,6.32
2023-01-21T04:56:09.114Z,5.97
2023-01-21T04:58:36.502Z,6.50
2023-01-21T05:01:04.141Z,5.60
2023-01-21T05:03:31.454Z,5.80
2023-01-21T05:05:58.919Z,6.05
2023-01-21T05:08:26.304Z,6.05
2023-01-21T05:10:53.673Z,4.95
2023-01-21T05:13:21.123Z,6.38
2023-01-21T05:15:48.468Z,6.00
2023-01-21T05:18:15.821Z,6.32
2023-01-21T05:20:43.233Z,5.97
2023-01-21T05:23:10.527Z,5.75
2023-01-21T05:25:37.883Z,5.18
2023-01-21T05:28:05.229Z,5.90
2023-01-21T05:30:32.656Z,6.40
2023-01-21T05:33:00.090Z,5.85
2023-01-21T05:35:27.492Z,5.82
2023-01-21T05:37:54.851Z,6.13
2023-01-21T05:40:22.289Z,6.78
2023-01-21T05:42:49.666Z,5.78
2023-01-21T05:45:17.119Z,5.45
2023-01-21T05:47:44.463Z,6.10
2023-01-21T05:50:12.455Z,5.93
2023-01-21T05:52:39.823Z,5.90
2023-01-21T05:55:07.616Z,6.90
2023-01-21T05:57:35.107Z,6.35
2023-01-21T06:00:02.531Z,6.53
2023-01-21T06:02:32.367Z,5.53
2023-01-21T06:04:59.779Z,5.53
2023-01-21T06:07:27.117Z,6.10
2023-01-21T06:09:54.495Z,5.80
2023-01-21T06:12:23.898Z,5.90
2023-01-21T06:14:52.205Z,5.85
2023-01-21T06:17:19.515Z,5.47
2023-01-21T06:19:46.924Z,4.95
2023-01-21T06:22:17.949Z,7.00
2023-01-21T06:24:45.441Z,6.10
2023-01-21T06:27:12.793Z,4.97
2023-01-21T06:29:40.191Z,5.10
2023-01-21T06:32:07.683Z,5.22
2023-01-21T06:34:35.132Z,5.93
2023-01-21T06:37:02.627Z,5.65
2023-01-21T06:39:30.063Z,6.28
2023-01-21T06:41:57.444Z,6.40
2023-01-21T06:44:24.921Z,6.43
2023-01-21T06:47:00.792Z,5.93
2023-01-21T06:49:28.701Z,5.95
2023-01-21T06:51:56.479Z,6.07
2023-01-21T06:54:23.823Z,6.35
2023-01-21T06:56:51.299Z,5.47
2023-01-21T06:59:18.743Z,5.22
2023-01-21T07:01:46.081Z,5.82
2023-01-21T07:04:13.442Z,6.15
2023-01-21T07:06:40.871Z,5.82
2023-01-21T07:09:08.519Z,5.18
2023-01-21T07:11:35.981Z,5.80
2023-01-21T07:14:03.355Z,5.22
2023-01-21T07:16:30.815Z,5.60
2023-01-21T07:18:58.196Z,6.18
2023-01-21T07:21:25.767Z,6.30
2023-01-21T07:23:53.805Z,5.53
2023-01-21T07:26:21.721Z,4.93
2023-01-21T07:28:49.216Z,6.20
2023-01-21T07:31:16.671Z,5.35
2023-01-21T07:33:44.054Z,5.82
2023-01-21T07:36:11.406Z,5.38
2023-01-21T07:38:38.753Z,6.30
2023-01-21T07:41:06.146Z,5.90
2023-01-21T07:43:33.458Z,5.90
2023-01-21T07:46:00.823Z,6.60
2023-01-21T07:48:28.178Z,5.90
2023-01-21T07:50:59.858Z,5.07
2023-01-21T07:53:27.347Z,6.15
2023-01-21T07:55:54.704Z,5.80
2023-01-21T07:58:22.082Z,5.25
2023-01-21T08:00:49.511Z,5.80
2023-01-21T08:03:20.119Z,5.15
2023-01-21T08:05:47.403Z,5.88
2023-01-21T08:08:14.928Z,5.65
2023-01-21T08:10:42.246Z,5.68
2023-01-21T08:13:09.685Z,6.40
2023-01-21T08:15:36.994Z,6.40
2023-01-21T08:18:04.448Z,5.60
2023-01-21T08:20:32.337Z,5.70
2023-01-21T08:23:01.118Z,5.32
2023-01-21T08:25:28.597Z,5.45
2023-01-21T08:27:55.923Z,5.78
2023-01-21T08:30:23.265Z,6.05
2023-01-21T08:32:50.611Z,5.75
2023-01-21T08:35:18.316Z,6.35
2023-01-21T08:37:45.868Z,5.70
2023-01-21T08:40:13.328Z,5.65
2023-01-21T08:42:40.751Z,8.48
2023-01-21T08:45:08.715Z,6.07
2023-01-21T08:47:36.131Z,6.78
2023-01-21T08:50:03.666Z,6.72
2023-01-21T08:52:31.048Z,5.72
2023-01-21T08:54:58.443Z,6.47
2023-01-21T08:57:27.454Z,7.38
2023-01-21T08:59:54.825Z,7.13
2023-01-21T09:02:22.267Z,6.63
2023-01-21T09:04:50.809Z,7.32
2023-01-21T09:07:18.270Z,5.90
2023-01-21T09:09:47.352Z,6.65
2023-01-21T09:12:15.416Z,6.70
2023-01-21T09:14:44.085Z,7.70
2023-01-21T09:17:11.494Z,6.10
2023-01-21T09:19:39.076Z,7.20
2023-01-21T09:22:06.551Z,6.53
2023-01-21T09:24:33.890Z,8.02
2023-01-21T09:27:01.365Z,5.95
2023-01-21T09:29:28.946Z,6.15
2023-01-21T09:31:56.346Z,6.65
2023-01-21T09:34:23.699Z,7.90
2023-01-21T09:36:51.364Z,7.10
2023-01-21T09:39:18.742Z,10.90
2023-01-21T09:41:54.306Z,6.20
2023-01-21T09:44:43.879Z,7.05
2023-01-21T09:47:20.833Z,7.93
2023-01-21T09:49:57.900Z,9.93
2023-01-21T09:52:41.163Z,8.30
2023-01-21T09:55:18.967Z,8.45
2023-01-21T09:58:01.975Z,6.88
2023-01-21T10:00:49.966Z,7.50
2023-01-21T10:03:34.234Z,7.85
2023-01-21T10:06:23.223Z,8.27
2023-01-21T10:08:53.318Z,10.10
2023-01-21T10:11:33.473Z,11.35
2023-01-21T10:14:19.623Z,8.13
2023-01-21T10:17:02.093Z,8.40
2023-01-21T10:19:46.335Z,7.30
2023-01-21T10:22:22.515Z,9.20
2023-01-21T10:24:55.445Z,18.48
2023-01-21T10:27:25.068Z,7.75
2023-01-21T10:30:04.099Z,9.80
2023-01-21T10:32:34.311Z,9.00
2023-01-21T10:35:01.724Z,9.02
2023-01-21T10:37:42.968Z,10.27
2023-01-21T10:40:39.809Z,12.27
2023-01-21T10:43:19.037Z,9.18
2023-01-21T10:46:04.103Z,10.10
2023-01-21T10:48:38.793Z,9.63
2023-01-21T10:51:11.303Z,12.30
2023-01-21T10:53:59.788Z,9.30
2023-01-21T10:56:36.329Z,12.13
2023-01-21T10:59:09.282Z,17.45
2023-01-21T11:01:50.601Z,15.55
2023-01-21T11:04:27.395Z,25.55
2023-01-21T11:07:01.015Z,30.13
2023-01-21T11:09:32.148Z,44.85
2023-01-21T11:12:00.987Z,59.42
2023-01-21T11:14:28.468Z,62.75
2023-01-21T11:16:56.147Z,65.50
2023-01-21T11:19:27.869Z,70.65
2023-01-21T11:22:25.749Z,68.75
2023-01-21T11:24:53.154Z,77.43
2023-01-21T11:27:21.012Z,75.97
2023-01-21T11:29:50.323Z,93.43
2023-01-21T11:32:22.316Z,86.53
2023-01-21T11:34:52.436Z,94.68
2023-01-21T11:37:30.871Z,81.93
2023-01-21T11:39:59.872Z,108.80
2023-01-21T11:42:27.632Z,95.15
2023-01-21T11:44:57.743Z,104.35
2023-01-21T11:47:50.555Z,124.30
2023-01-21T11:50:30.955Z,134.38
2023-01-21T11:53:07.941Z,156.07
2023-01-21T11:55:41.059Z,175.23
2023-01-21T11:58:32.497Z,207.82
2023-01-21T12:01:03.225Z,237.63
2023-01-21T12:03:30.645Z,285.83
2023-01-21T12:05:59.453Z,294.08
2023-01-21T12:08:33.267Z,321.20
2023-01-21T12:11:02.556Z,359.98
2023-01-21T12:13:49.231Z,383.88
2023-01-21T12:16:35.577Z,408.00
2023-01-21T12:19:27.322Z,436.98
2023-01-21T12:22:01.424Z,465.73
2023-01-21T12:24:42.237Z,478.25
2023-01-21T12:27:32.703Z,501.88
2023-01-21T12:30:25.354Z,519.90
2023-01-21T12:33:07.841Z,533.67
2023-01-21T12:35:53.787Z,547.95
2023-01-21T12:38:28.080Z,569.42
2023-01-21T12:41:05.189Z,570.42
2023-01-21T12:43:37.097Z,582.35
2023-01-21T12:46:27.946Z,589.80
2023-01-21T12:49:15.482Z,586.10
2023-01-21T12:54:43.723Z,612.10
2023-01-21T12:57:34.739Z,618.97
2023-01-21T13:00:18.833Z,631.35
2023-01-21T13:02:51.893Z,618.67
2023-01-21T13:05:40.856Z,634.55
2023-01-21T13:08:35.630Z,627.22
2023-01-21T13:11:18.274Z,637.17
2023-01-21T13:14:13.620Z,633.45
2023-01-21T13:16:46.412Z,622.90
2023-01-21T13:19:15.827Z,637.20
2023-01-21T13:21:56.136Z,646.30
2023-01-21T13:24:33.898Z,634.22
2023-01-21T13:27:19.426Z,639.78
2023-01-21T13:30:08.344Z,633.78
2023-01-21T13:32:53.224Z,616.65
2023-01-21T13:35:49.839Z,625.88
2023-01-21T13:38:36.231Z,609.25
2023-01-21T13:41:13.755Z,610.75
2023-01-21T13:43:54.638Z,596.67
2023-01-21T13:46:43.351Z,590.08
2023-01-21T13:49:32.364Z,588.97
2023-01-21T13:52:17.199Z,561.38
2023-01-21T13:55:15.348Z,558.03
2023-01-21T13:57:51.459Z,546.55
2023-01-21T14:00:41.654Z,509.30
2023-01-21T14:03:35.444Z,502.50
2023-01-21T14:06:18.511Z,482.15
2023-01-21T14:08:57.528Z,438.52
2023-01-21T14:11:39.155Z,421.02
2023-01-21T14:14:27.488Z,383.35
2023-01-21T14:17:06.777Z,369.10
2023-01-21T14:20:12.006Z,354.75
2023-01-21T14:23:13.882Z,342.13
2023-01-21T14:26:15.091Z,319.98
2023-01-21T14:28:51.634Z,304.20
2023-01-21T14:31:33.389Z,297.13
2023-01-21T14:34:06.255Z,279.55
2023-01-21T14:36:46.678Z,270.58
2023-01-21T14:39:26.438Z,262.95
2023-01-21T14:42:09.662Z,257.17
2023-01-21T14:44:53.826Z,239.30
2023-01-21T14:47:30.074Z,224.10
2023-01-21T14:49:59.011Z,211.63
2023-01-21T14:52:32.199Z,206.80
2023-01-21T14:55:00.376Z,189.43
2023-01-21T14:57:33.457Z,188.77
2023-01-21T15:00:23.460Z,181.13
2023-01-21T15:03:15.829Z,170.68
2023-01-21T15:05:48.704Z,154.95
2023-01-21T15:08:32.855Z,150.57
2023-01-21T15:11:08.215Z,148.10
2023-01-21T15:13:37.186Z,134.95
2023-01-21T15:16:15.722Z,127.43
2023-01-21T15:18:48.447Z,125.47
2023-01-21T15:21:34.431Z,114.10
2023-01-21T15:24:21.069Z,113.35
2023-01-21T15:27:16.453Z,103.82
2023-01-21T15:30:03.996Z,103.15
2023-01-21T15:32:33.089Z,90.05
2023-01-21T15:35:22.208Z,92.65
2023-01-21T15:38:00.334Z,82.88
2023-01-21T15:40:35.275Z,83.35
2023-01-21T15:43:07.244Z,77.15
2023-01-21T15:45:43.681Z,78.45
2023-01-21T15:48:30.149Z,64.85
2023-01-21T15:51:13.372Z,65.82
2023-01-21T15:54:15.397Z,58.03
2023-01-21T15:56:55.792Z,55.55
2023-01-21T15:59:57.104Z,54.28
2023-01-21T16:02:27.857Z,53.25
2023-01-21T16:05:17.462Z,48.90
2023-01-21T16:07:57.737Z,46.08
2023-01-21T16:10:55.905Z,44.03
2023-01-21T16:13:35.366Z,43.05
2023-01-21T16:16:23.358Z,41.75
2023-01-21T16:18:50.816Z,36.38
2023-01-21T16:21:27.281Z,35.10
2023-01-21T16:23:58.503Z,32.28
2023-01-21T16:26:28.184Z,30.67
2023-01-21T16:28:55.864Z,28.83
2023-01-21T16:31:23.735Z,29.25
2023-01-21T16:33:51.914Z,24.48
2023-01-21T16:36:19.825Z,28.38
2023-01-21T16:38:48.484Z,26.23
2023-01-21T16:41:23.987Z,23.52
2023-01-21T16:44:00.338Z,23.23
2023-01-21T16:46:36.253Z,22.77
2023-01-21T16:49:15.523Z,19.87
2023-01-21T16:51:52.768Z,21.08
2023-01-21T16:54:20.220Z,20.65
2023-01-21T16:56:59.834Z,17.73
2023-01-21T16:59:39.677Z,19.60
2023-01-21T17:02:27.077Z,15.82
2023-01-21T17:04:57.711Z,17.08
2023-01-21T17:07:58.709Z,14.60
2023-01-21T17:10:40.024Z,14.38
2023-01-21T17:13:16.208Z,14.07
2023-01-21T17:15:49.244Z,13.05
2023-01-21T17:18:22.915Z,14.43
2023-01-21T17:21:04.396Z,17.33
2023-01-21T17:23:37.310Z,13.80
2023-01-21T17:26:17.105Z,14.57
2023-01-21T17:28:47.411Z,13.05
2023-01-21T17:31:14.805Z,16.95
2023-01-21T17:33:43.491Z,13.52
2023-01-21T17:36:16.053Z,11.35
2023-01-21T17:38:46.061Z,11.15
2023-01-21T17:41:37.558Z,14.18
2023-01-21T17:44:20.772Z,11.95
2023-01-21T17:46:51.128Z,12.48
2023-01-21T17:49:23.296Z,12.65
2023-01-21T17:51:53.183Z,17.92
2023-01-21T17:54:29.792Z,13.77
2023-01-21T17:56:59.042Z,12.00
2023-01-21T17:59:40.804Z,13.05
2023-01-21T18:02:13.936Z,11.77
2023-01-21T18:04:41.834Z,11.00
2023-01-21T18:07:18.235Z,10.93
2023-01-21T18:09:45.685Z,10.02
2023-01-21T18:12:13.165Z,9.98
2023-01-21T18:14:42.024Z,11.70
2023-01-21T18:17:19.247Z,9.75
2023-01-21T18:22:28.728Z,11.05
2023-01-21T18:24:56.522Z,11.98
2023-01-21T18:27:26.206Z,9.90
2023-01-21T18:29:54.516Z,10.93
2023-01-21T18:32:21.884Z,11.07
2023-01-21T18:34:49.244Z,10.02
2023-01-21T18:37:19.857Z,11.10
2023-01-21T18:39:47.251Z,14.52
2023-01-21T18:42:17.181Z,11.57
2023-01-21T18:44:45.021Z,11.48
2023-01-21T18:47:17.704Z,10.48
2023-01-21T18:49:47.645Z,12.45
2023-01-21T18:52:18.927Z,11.27
2023-01-21T18:54:46.644Z,13.25
2023-01-21T18:57:16.777Z,11.40
2023-01-21T18:59:44.495Z,12.93
2023-01-21T19:02:21.406Z,12.18
2023-01-21T19:07:21.210Z,10.55
2023-01-21T19:09:50.916Z,13.07
2023-01-21T19:12:21.284Z,10.18
2023-01-21T19:14:49.327Z,8.18
2023-01-21T19:17:25.761Z,10.60
2023-01-21T19:19:54.179Z,9.32
2023-01-21T19:22:21.894Z,11.52
2023-01-21T19:24:49.445Z,11.10
2023-01-21T19:27:29.161Z,11.38
2023-01-21T19:29:56.539Z,9.93
2023-01-21T19:32:23.949Z,9.85
2023-01-21T19:34:51.330Z,9.55
2023-01-21T19:37:22.525Z,10.75
2023-01-21T19:39:49.996Z,9.80
2023-01-21T19:42:18.037Z,12.48
2023-01-21T19:44:45.408Z,11.20
2023-01-21T19:47:24.575Z,11.73
2023-01-21T19:49:53.107Z,11.10
2023-01-21T19:52:20.411Z,9.95
2023-01-21T19:54:47.778Z,12.25
2023-01-21T19:57:16.617Z,10.43
2023-01-21T19:59:44.934Z,13.23
2023-01-21T20:02:12.877Z,12.55
2023-01-21T20:04:40.322Z,13.68
2023-01-21T20:07:14.701Z,11.55
2023-01-21T20:09:42.647Z,10.38
2023-01-21T20:12:13.556Z,10.15
2023-01-21T20:14:40.898Z,11.95
2023-01-21T20:24:58.180Z,11.07
2023-01-21T20:35:03.390Z,10.38
2023-01-21T20:45:06.961Z,12.48
2023-01-21T20:55:10.199Z,15.25
2023-01-21T21:05:14.553Z,14.90
2023-01-21T21:15:19.346Z,15.43
2023-01-21T21:25:25.668Z,16.10
2023-01-21T21:35:33.420Z,16.58
2023-01-21T21:45:36.677Z,16.77
2023-01-21T21:55:39.743Z,17.83
2023-01-21T22:05:50.839Z,19.20
2023-01-21T22:15:57.434Z,20.10
2023-01-21T22:26:05.915Z,20.50
2023-01-21T22:36:11.705Z,23.30
2023-01-21T22:46:17.764Z,21.90
2023-01-21T22:56:39.973Z,20.65
2023-01-21T23:06:48.818Z,21.83
2023-01-21T23:16:52.803Z,24.25
2023-01-21T23:26:56.203Z,25.25
2023-01-21T23:36:59.247Z,28.17
2023-01-21T23:47:02.409Z,24.77
2023-01-21T23:57:06.173Z,28.20
